sensor_id;sensor_type;location;lat;lon;timestamp;temperature;humidity
9177;DHT22;4623;54.310;10.112;2022-08-01T00:00:34;19.30;99.90
9177;DHT22;4623;54.310;10.112;2022-08-01T00:03:00;19.30;99.90
9177;DHT22;4623;54.310;10.112;2022-08-01T00:05:26;19.40;99.90
9177;DHT22;4623;54.310;10.112;2022-08-01T00:07:51;19.50;99.90
9177;DHT22;4623;54.310;10.112;2022-08-01T00:10:17;19.50;99.90
9177;DHT22;4623;54.310;10.112;2022-08-01T00:12:44;19.50;99.90
9177;DHT22;4623;54.310;10.112;2022-08-01T00:15:11;19.60;99.90
9177;DHT22;4623;54.310;10.112;2022-08-01T00:17:38;19.60;99.90
9177;DHT22;4623;54.310;10.112;2022-08-01T00:20:05;19.70;99.90
9177;DHT22;4623;54.310;10.112;2022-08-01T00:22:32;19.70;99.90
9177;DHT22;4623;54.310;10.112;2022-08-01T00:24:58;19.70;99.90
9177;DHT22;4623;54.310;10.112;2022-08-01T00:27:23;19.80;99.90
9177;DHT22;4623;54.310;10.112;2022-08-01T00:29:49;19.80;99.90
9177;DHT22;4623;54.310;10.112;2022-08-01T00:32:14;19.70;99.90
9177;DHT22;4623;54.310;10.112;2022-08-01T00:34:40;19.70;99.90
9177;DHT22;4623;54.310;10.112;2022-08-01T00:37:05;19.70;99.90
9177;DHT22;4623;54.310;10.112;2022-08-01T00:39:31;19.70;99.90
9177;DHT22;4623;54.310;10.112;2022-08-01T00:41:59;19.70;99.90
9177;DHT22;4623;54.310;10.112;2022-08-01T00:44:24;19.80;99.90
9177;DHT22;4623;54.310;10.112;2022-08-01T00:46:50;19.80;99.90
9177;DHT22;4623;54.310;10.112;2022-08-01T00:49:16;19.80;99.90
9177;DHT22;4623;54.310;10.112;2022-08-01T00:51:42;19.90;99.90
9177;DHT22;4623;54.310;10.112;2022-08-01T00:54:07;19.80;99.90
9177;DHT22;4623;54.310;10.112;2022-08-01T00:56:33;19.80;99.90
9177;DHT22;4623;54.310;10.112;2022-08-01T00:58:59;19.80;99.90
9177;DHT22;4623;54.310;10.112;2022-08-01T01:01:25;19.80;99.90
9177;DHT22;4623;54.310;10.112;2022-08-01T01:03:52;19.80;99.90
9177;DHT22;4623;54.310;10.112;2022-08-01T01:09:05;19.80;99.90
9177;DHT22;4623;54.310;10.112;2022-08-01T01:11:49;19.80;99.90
9177;DHT22;4623;54.310;10.112;2022-08-01T01:14:51;19.70;99.90
9177;DHT22;4623;54.310;10.112;2022-08-01T01:17:24;19.70;99.90
9177;DHT22;4623;54.310;10.112;2022-08-01T01:19:54;19.60;99.90
9177;DHT22;4623;54.310;10.112;2022-08-01T01:22:36;19.60;99.90
9177;DHT22;4623;54.310;10.112;2022-08-01T01:31:06;19.40;99.90
9177;DHT22;4623;54.310;10.112;2022-08-01T01:33:34;19.40;99.90
9177;DHT22;4623;54.310;10.112;2022-08-01T01:36:05;19.40;99.90
9177;DHT22;4623;54.310;10.112;2022-08-01T01:38:37;19.30;99.90
9177;DHT22;4623;54.310;10.112;2022-08-01T01:41:08;19.30;99.90
9177;DHT22;4623;54.310;10.112;2022-08-01T01:43:35;19.30;99.90
9177;DHT22;4623;54.310;10.112;2022-08-01T01:46:05;19.30;99.90
9177;DHT22;4623;54.310;10.112;2022-08-01T01:48:34;19.30;99.90
9177;DHT22;4623;54.310;10.112;2022-08-01T01:51:01;19.30;99.90
9177;DHT22;4623;54.310;10.112;2022-08-01T01:53:28;19.30;99.90
9177;DHT22;4623;54.310;10.112;2022-08-01T01:55:58;19.30;99.90
9177;DHT22;4623;54.310;10.112;2022-08-01T01:58:24;19.30;99.90
9177;DHT22;4623;54.310;10.112;2022-08-01T02:00:52;19.30;99.90
9177;DHT22;4623;54.310;10.112;2022-08-01T02:03:19;19.30;99.90
9177;DHT22;4623;54.310;10.112;2022-08-01T02:05:46;19.20;99.90
9177;DHT22;4623;54.310;10.112;2022-08-01T02:08:15;19.20;99.90
9177;DHT22;4623;54.310;10.112;2022-08-01T02:10:41;19.20;99.90
9177;DHT22;4623;54.310;10.112;2022-08-01T02:13:27;19.20;99.90
9177;DHT22;4623;54.310;10.112;2022-08-01T02:15:53;19.10;99.90
9177;DHT22;4623;54.310;10.112;2022-08-01T02:18:19;19.10;99.90
9177;DHT22;4623;54.310;10.112;2022-08-01T02:20:45;19.20;99.90
9177;DHT22;4623;54.310;10.112;2022-08-01T02:23:12;19.20;99.90
9177;DHT22;4623;54.310;10.112;2022-08-01T02:25:48;19.20;99.90
9177;DHT22;4623;54.310;10.112;2022-08-01T02:28:20;19.20;99.90
9177;DHT22;4623;54.310;10.112;2022-08-01T02:30:50;19.20;99.90
9177;DHT22;4623;54.310;10.112;2022-08-01T02:33:23;19.20;99.90
9177;DHT22;4623;54.310;10.112;2022-08-01T02:35:56;19.20;99.90
9177;DHT22;4623;54.310;10.112;2022-08-01T02:38:25;19.20;99.90
9177;DHT22;4623;54.310;10.112;2022-08-01T02:40:53;19.20;99.90
9177;DHT22;4623;54.310;10.112;2022-08-01T02:43:21;19.20;99.90
9177;DHT22;4623;54.310;10.112;2022-08-01T02:45:52;19.20;99.90
9177;DHT22;4623;54.310;10.112;2022-08-01T02:48:19;19.30;99.90
9177;DHT22;4623;54.310;10.112;2022-08-01T02:50:48;19.30;99.90
9177;DHT22;4623;54.310;10.112;2022-08-01T02:53:17;19.20;99.90
9177;DHT22;4623;54.310;10.112;2022-08-01T02:55:44;19.30;99.90
9177;DHT22;4623;54.310;10.112;2022-08-01T02:58:14;19.30;99.90
9177;DHT22;4623;54.310;10.112;2022-08-01T03:00:42;19.30;99.90
9177;DHT22;4623;54.310;10.112;2022-08-01T03:03:09;19.30;99.90
9177;DHT22;4623;54.310;10.112;2022-08-01T03:05:37;19.30;99.90
9177;DHT22;4623;54.310;10.112;2022-08-01T03:08:06;19.20;99.90
9177;DHT22;4623;54.310;10.112;2022-08-01T03:10:35;19.20;99.90
9177;DHT22;4623;54.310;10.112;2022-08-01T03:13:03;19.20;99.90
9177;DHT22;4623;54.310;10.112;2022-08-01T03:15:32;19.20;99.90
9177;DHT22;4623;54.310;10.112;2022-08-01T03:17:59;19.30;99.90
9177;DHT22;4623;54.310;10.112;2022-08-01T03:20:27;19.20;99.90
9177;DHT22;4623;54.310;10.112;2022-08-01T03:22:56;19.20;99.90
9177;DHT22;4623;54.310;10.112;2022-08-01T03:25:24;19.20;99.90
9177;DHT22;4623;54.310;10.112;2022-08-01T03:27:56;19.20;99.90
9177;DHT22;4623;54.310;10.112;2022-08-01T03:30:23;19.10;99.90
9177;DHT22;4623;54.310;10.112;2022-08-01T03:32:50;19.10;99.90
9177;DHT22;4623;54.310;10.112;2022-08-01T03:35:16;19.10;99.90
9177;DHT22;4623;54.310;10.112;2022-08-01T03:37:46;19.10;99.90
9177;DHT22;4623;54.310;10.112;2022-08-01T03:40:26;19.20;99.90
9177;DHT22;4623;54.310;10.112;2022-08-01T03:43:05;19.20;99.90
9177;DHT22;4623;54.310;10.112;2022-08-01T03:45:38;19.10;99.90
9177;DHT22;4623;54.310;10.112;2022-08-01T03:48:14;19.20;99.90
9177;DHT22;4623;54.310;10.112;2022-08-01T03:50:44;19.20;99.90
9177;DHT22;4623;54.310;10.112;2022-08-01T03:53:11;19.10;99.90
9177;DHT22;4623;54.310;10.112;2022-08-01T03:55:39;19.10;99.90
9177;DHT22;4623;54.310;10.112;2022-08-01T03:58:08;19.10;99.90
9177;DHT22;4623;54.310;10.112;2022-08-01T04:00:38;19.00;99.90
9177;DHT22;4623;54.310;10.112;2022-08-01T04:03:09;19.00;99.90
9177;DHT22;4623;54.310;10.112;2022-08-01T04:05:35;19.00;99.90
9177;DHT22;4623;54.310;10.112;2022-08-01T04:08:02;19.00;99.90
9177;DHT22;4623;54.310;10.112;2022-08-01T04:10:29;19.10;99.90
9177;DHT22;4623;54.310;10.112;2022-08-01T04:12:55;19.10;99.90
9177;DHT22;4623;54.310;10.112;2022-08-01T04:15:21;19.00;99.90
9177;DHT22;4623;54.310;10.112;2022-08-01T04:17:47;19.00;99.90
9177;DHT22;4623;54.310;10.112;2022-08-01T04:20:13;19.00;99.90
9177;DHT22;4623;54.310;10.112;2022-08-01T04:22:39;19.00;99.90
9177;DHT22;4623;54.310;10.112;2022-08-01T04:25:21;18.90;99.90
9177;DHT22;4623;54.310;10.112;2022-08-01T04:27:49;18.90;99.90
9177;DHT22;4623;54.310;10.112;2022-08-01T04:30:27;18.90;99.90
9177;DHT22;4623;54.310;10.112;2022-08-01T04:32:54;18.80;99.90
9177;DHT22;4623;54.310;10.112;2022-08-01T04:35:21;18.80;99.90
9177;DHT22;4623;54.310;10.112;2022-08-01T04:37:48;18.80;99.90
9177;DHT22;4623;54.310;10.112;2022-08-01T04:40:16;18.80;99.90
9177;DHT22;4623;54.310;10.112;2022-08-01T04:42:42;18.80;99.90
9177;DHT22;4623;54.310;10.112;2022-08-01T04:45:09;18.90;99.90
9177;DHT22;4623;54.310;10.112;2022-08-01T04:47:36;18.90;99.90
9177;DHT22;4623;54.310;10.112;2022-08-01T04:50:06;18.90;99.90
9177;DHT22;4623;54.310;10.112;2022-08-01T04:52:36;19.00;99.90
9177;DHT22;4623;54.310;10.112;2022-08-01T04:55:04;19.00;99.90
9177;DHT22;4623;54.310;10.112;2022-08-01T04:57:36;19.10;99.90
9177;DHT22;4623;54.310;10.112;2022-08-01T05:00:03;19.10;99.90
9177;DHT22;4623;54.310;10.112;2022-08-01T05:02:29;19.00;99.90
9177;DHT22;4623;54.310;10.112;2022-08-01T05:04:55;19.00;99.90
9177;DHT22;4623;54.310;10.112;2022-08-01T05:07:21;19.10;99.90
9177;DHT22;4623;54.310;10.112;2022-08-01T05:09:47;19.10;99.90
9177;DHT22;4623;54.310;10.112;2022-08-01T05:12:12;19.10;99.90
9177;DHT22;4623;54.310;10.112;2022-08-01T05:14:38;19.00;99.90
9177;DHT22;4623;54.310;10.112;2022-08-01T05:17:05;19.00;99.90
9177;DHT22;4623;54.310;10.112;2022-08-01T05:19:32;19.00;99.90
9177;DHT22;4623;54.310;10.112;2022-08-01T05:21:59;18.90;99.90
9177;DHT22;4623;54.310;10.112;2022-08-01T05:24:27;19.00;99.90
9177;DHT22;4623;54.310;10.112;2022-08-01T05:26:55;19.00;99.90
9177;DHT22;4623;54.310;10.112;2022-08-01T05:29:21;19.00;99.90
9177;DHT22;4623;54.310;10.112;2022-08-01T05:31:47;19.00;99.90
9177;DHT22;4623;54.310;10.112;2022-08-01T05:34:12;18.90;99.90
9177;DHT22;4623;54.310;10.112;2022-08-01T05:36:38;18.90;99.90
9177;DHT22;4623;54.310;10.112;2022-08-01T05:39:04;18.90;99.90
9177;DHT22;4623;54.310;10.112;2022-08-01T05:41:30;18.90;99.90
9177;DHT22;4623;54.310;10.112;2022-08-01T05:43:56;18.90;99.90
9177;DHT22;4623;54.310;10.112;2022-08-01T05:46:22;19.00;99.90
9177;DHT22;4623;54.310;10.112;2022-08-01T05:48:48;19.00;99.90
9177;DHT22;4623;54.310;10.112;2022-08-01T05:51:13;19.10;99.90
9177;DHT22;4623;54.310;10.112;2022-08-01T05:53:39;19.10;99.90
9177;DHT22;4623;54.310;10.112;2022-08-01T05:56:04;19.00;99.90
9177;DHT22;4623;54.310;10.112;2022-08-01T05:58:30;19.10;99.90
9177;DHT22;4623;54.310;10.112;2022-08-01T06:00:57;19.10;99.90
9177;DHT22;4623;54.310;10.112;2022-08-01T06:03:23;19.10;99.90
9177;DHT22;4623;54.310;10.112;2022-08-01T06:05:48;19.00;99.90
9177;DHT22;4623;54.310;10.112;2022-08-01T06:08:14;19.00;99.90
9177;DHT22;4623;54.310;10.112;2022-08-01T06:10:40;19.10;99.90
9177;DHT22;4623;54.310;10.112;2022-08-01T06:13:05;19.10;99.90
9177;DHT22;4623;54.310;10.112;2022-08-01T06:15:31;19.20;99.90
9177;DHT22;4623;54.310;10.112;2022-08-01T06:17:57;19.20;99.90
9177;DHT22;4623;54.310;10.112;2022-08-01T06:20:23;19.10;99.90
9177;DHT22;4623;54.310;10.112;2022-08-01T06:22:48;19.10;99.90
9177;DHT22;4623;54.310;10.112;2022-08-01T06:25:14;19.20;99.90
9177;DHT22;4623;54.310;10.112;2022-08-01T06:27:40;19.20;99.90
9177;DHT22;4623;54.310;10.112;2022-08-01T06:30:06;19.20;99.90
9177;DHT22;4623;54.310;10.112;2022-08-01T06:32:33;19.10;99.90
9177;DHT22;4623;54.310;10.112;2022-08-01T06:34:58;19.00;99.90
9177;DHT22;4623;54.310;10.112;2022-08-01T06:37:28;19.00;99.90
9177;DHT22;4623;54.310;10.112;2022-08-01T06:39:55;19.00;99.90
9177;DHT22;4623;54.310;10.112;2022-08-01T06:42:20;18.90;99.90
9177;DHT22;4623;54.310;10.112;2022-08-01T06:44:46;18.80;99.90
9177;DHT22;4623;54.310;10.112;2022-08-01T06:47:12;18.70;99.90
9177;DHT22;4623;54.310;10.112;2022-08-01T06:49:38;18.80;99.90
9177;DHT22;4623;54.310;10.112;2022-08-01T06:52:03;18.80;99.90
9177;DHT22;4623;54.310;10.112;2022-08-01T06:54:29;18.70;99.90
9177;DHT22;4623;54.310;10.112;2022-08-01T06:56:55;18.60;99.90
9177;DHT22;4623;54.310;10.112;2022-08-01T06:59:20;18.60;99.90
9177;DHT22;4623;54.310;10.112;2022-08-01T07:01:46;18.60;99.90
9177;DHT22;4623;54.310;10.112;2022-08-01T07:04:11;18.70;99.90
9177;DHT22;4623;54.310;10.112;2022-08-01T07:06:37;18.70;99.90
9177;DHT22;4623;54.310;10.112;2022-08-01T07:09:03;18.50;99.90
9177;DHT22;4623;54.310;10.112;2022-08-01T07:11:29;18.50;99.90
9177;DHT22;4623;54.310;10.112;2022-08-01T07:13:54;18.50;99.90
9177;DHT22;4623;54.310;10.112;2022-08-01T07:16:21;18.50;99.90
9177;DHT22;4623;54.310;10.112;2022-08-01T07:18:47;18.50;99.90
9177;DHT22;4623;54.310;10.112;2022-08-01T07:21:13;18.60;99.90
9177;DHT22;4623;54.310;10.112;2022-08-01T07:23:38;18.60;99.90
9177;DHT22;4623;54.310;10.112;2022-08-01T07:26:04;18.80;99.90
9177;DHT22;4623;54.310;10.112;2022-08-01T07:28:30;18.80;99.90
9177;DHT22;4623;54.310;10.112;2022-08-01T07:30:56;18.90;99.90
9177;DHT22;4623;54.310;10.112;2022-08-01T07:33:22;19.20;99.90
9177;DHT22;4623;54.310;10.112;2022-08-01T07:35:48;19.30;99.90
9177;DHT22;4623;54.310;10.112;2022-08-01T07:38:13;19.20;99.90
9177;DHT22;4623;54.310;10.112;2022-08-01T07:40:45;19.00;99.90
9177;DHT22;4623;54.310;10.112;2022-08-01T07:43:10;18.90;99.90
9177;DHT22;4623;54.310;10.112;2022-08-01T07:45:36;18.90;99.90
9177;DHT22;4623;54.310;10.112;2022-08-01T07:48:03;18.90;99.90
9177;DHT22;4623;54.310;10.112;2022-08-01T07:50:29;19.10;99.90
9177;DHT22;4623;54.310;10.112;2022-08-01T07:52:55;19.30;99.90
9177;DHT22;4623;54.310;10.112;2022-08-01T07:55:21;19.30;99.90
9177;DHT22;4623;54.310;10.112;2022-08-01T07:57:46;19.20;99.90
9177;DHT22;4623;54.310;10.112;2022-08-01T08:00:13;19.00;99.90
9177;DHT22;4623;54.310;10.112;2022-08-01T08:02:39;18.90;99.90
9177;DHT22;4623;54.310;10.112;2022-08-01T08:05:05;19.00;99.90
9177;DHT22;4623;54.310;10.112;2022-08-01T08:07:31;19.00;99.90
9177;DHT22;4623;54.310;10.112;2022-08-01T08:09:57;19.00;99.90
9177;DHT22;4623;54.310;10.112;2022-08-01T08:12:23;18.90;99.90
9177;DHT22;4623;54.310;10.112;2022-08-01T08:14:49;18.80;99.90
9177;DHT22;4623;54.310;10.112;2022-08-01T08:17:14;18.80;99.90
9177;DHT22;4623;54.310;10.112;2022-08-01T08:19:40;18.80;99.90
9177;DHT22;4623;54.310;10.112;2022-08-01T08:22:07;19.00;99.90
9177;DHT22;4623;54.310;10.112;2022-08-01T08:24:33;19.10;99.90
9177;DHT22;4623;54.310;10.112;2022-08-01T08:27:00;19.20;99.90
9177;DHT22;4623;54.310;10.112;2022-08-01T08:29:27;19.20;99.90
9177;DHT22;4623;54.310;10.112;2022-08-01T08:31:56;19.30;99.90
9177;DHT22;4623;54.310;10.112;2022-08-01T08:34:21;19.40;99.90
9177;DHT22;4623;54.310;10.112;2022-08-01T08:36:48;19.50;99.90
9177;DHT22;4623;54.310;10.112;2022-08-01T08:39:14;19.50;99.90
9177;DHT22;4623;54.310;10.112;2022-08-01T08:41:39;19.70;99.90
9177;DHT22;4623;54.310;10.112;2022-08-01T08:44:07;19.80;99.90
9177;DHT22;4623;54.310;10.112;2022-08-01T08:46:33;19.80;99.90
9177;DHT22;4623;54.310;10.112;2022-08-01T08:49:01;19.80;99.90
9177;DHT22;4623;54.310;10.112;2022-08-01T08:51:30;19.90;99.90
9177;DHT22;4623;54.310;10.112;2022-08-01T08:53:57;20.00;99.90
9177;DHT22;4623;54.310;10.112;2022-08-01T08:56:26;20.10;99.90
9177;DHT22;4623;54.310;10.112;2022-08-01T08:58:56;20.10;99.90
9177;DHT22;4623;54.310;10.112;2022-08-01T09:01:22;20.30;99.90
9177;DHT22;4623;54.310;10.112;2022-08-01T09:03:48;20.20;99.90
9177;DHT22;4623;54.310;10.112;2022-08-01T09:06:14;20.20;99.90
9177;DHT22;4623;54.310;10.112;2022-08-01T09:08:40;20.40;99.90
9177;DHT22;4623;54.310;10.112;2022-08-01T09:11:05;20.50;99.90
9177;DHT22;4623;54.310;10.112;2022-08-01T09:13:31;20.80;99.90
9177;DHT22;4623;54.310;10.112;2022-08-01T09:15:57;20.80;99.90
9177;DHT22;4623;54.310;10.112;2022-08-01T09:18:28;20.90;99.90
9177;DHT22;4623;54.310;10.112;2022-08-01T09:23:39;21.10;99.90
9177;DHT22;4623;54.310;10.112;2022-08-01T09:26:08;21.00;99.90
9177;DHT22;4623;54.310;10.112;2022-08-01T09:28:34;21.30;99.90
9177;DHT22;4623;54.310;10.112;2022-08-01T09:31:06;21.60;99.90
9177;DHT22;4623;54.310;10.112;2022-08-01T09:33:57;21.80;99.90
9177;DHT22;4623;54.310;10.112;2022-08-01T09:39:13;22.50;99.90
9177;DHT22;4623;54.310;10.112;2022-08-01T09:41:39;23.00;99.90
9177;DHT22;4623;54.310;10.112;2022-08-01T09:44:05;24.10;99.90
9177;DHT22;4623;54.310;10.112;2022-08-01T09:46:31;25.10;99.90
9177;DHT22;4623;54.310;10.112;2022-08-01T09:48:57;25.60;99.30
9177;DHT22;4623;54.310;10.112;2022-08-01T09:51:37;25.80;93.50
9177;DHT22;4623;54.310;10.112;2022-08-01T09:54:05;25.60;90.00
9177;DHT22;4623;54.310;10.112;2022-08-01T09:56:42;25.80;90.70
9177;DHT22;4623;54.310;10.112;2022-08-01T09:59:08;26.80;92.30
9177;DHT22;4623;54.310;10.112;2022-08-01T10:01:49;27.10;97.60
9177;DHT22;4623;54.310;10.112;2022-08-01T10:04:21;27.90;81.40
9177;DHT22;4623;54.310;10.112;2022-08-01T10:06:50;27.70;81.10
9177;DHT22;4623;54.310;10.112;2022-08-01T10:09:32;27.90;78.60
9177;DHT22;4623;54.310;10.112;2022-08-01T10:11:59;28.30;80.20
9177;DHT22;4623;54.310;10.112;2022-08-01T10:14:26;28.40;74.90
9177;DHT22;4623;54.310;10.112;2022-08-01T10:16:53;27.90;91.10
9177;DHT22;4623;54.310;10.112;2022-08-01T10:19:25;27.50;88.20
9177;DHT22;4623;54.310;10.112;2022-08-01T10:21:52;28.00;68.20
9177;DHT22;4623;54.310;10.112;2022-08-01T10:24:23;28.20;67.20
9177;DHT22;4623;54.310;10.112;2022-08-01T10:26:51;28.30;64.00
9177;DHT22;4623;54.310;10.112;2022-08-01T10:29:19;28.30;64.40
9177;DHT22;4623;54.310;10.112;2022-08-01T10:31:46;28.60;64.70
9177;DHT22;4623;54.310;10.112;2022-08-01T10:34:16;28.80;56.70
9177;DHT22;4623;54.310;10.112;2022-08-01T10:36:45;29.10;56.70
9177;DHT22;4623;54.310;10.112;2022-08-01T10:39:11;29.20;53.80
9177;DHT22;4623;54.310;10.112;2022-08-01T10:41:41;29.10;53.90
9177;DHT22;4623;54.310;10.112;2022-08-01T10:44:08;29.20;56.10
9177;DHT22;4623;54.310;10.112;2022-08-01T10:46:44;29.80;57.90
9177;DHT22;4623;54.310;10.112;2022-08-01T10:49:15;29.80;55.50
9177;DHT22;4623;54.310;10.112;2022-08-01T10:51:42;29.60;54.30
9177;DHT22;4623;54.310;10.112;2022-08-01T10:54:09;30.10;55.70
9177;DHT22;4623;54.310;10.112;2022-08-01T10:56:48;30.40;52.80
9177;DHT22;4623;54.310;10.112;2022-08-01T10:59:27;30.40;49.80
9177;DHT22;4623;54.310;10.112;2022-08-01T11:04:33;30.10;48.80
9177;DHT22;4623;54.310;10.112;2022-08-01T11:07:07;30.50;48.00
9177;DHT22;4623;54.310;10.112;2022-08-01T11:09:42;30.00;49.10
9177;DHT22;4623;54.310;10.112;2022-08-01T11:17:44;28.90;51.00
9177;DHT22;4623;54.310;10.112;2022-08-01T11:20:18;29.10;52.90
9177;DHT22;4623;54.310;10.112;2022-08-01T11:30:44;29.90;50.10
9177;DHT22;4623;54.310;10.112;2022-08-01T11:33:12;31.10;50.50
9177;DHT22;4623;54.310;10.112;2022-08-01T11:38:44;30.60;45.60
9177;DHT22;4623;54.310;10.112;2022-08-01T11:54:42;32.00;47.50
9177;DHT22;4623;54.310;10.112;2022-08-01T11:59:38;31.60;45.80
9177;DHT22;4623;54.310;10.112;2022-08-01T12:02:18;30.80;44.00
9177;DHT22;4623;54.310;10.112;2022-08-01T12:04:57;29.20;45.10
9177;DHT22;4623;54.310;10.112;2022-08-01T12:07:24;29.40;49.10
9177;DHT22;4623;54.310;10.112;2022-08-01T12:10:07;29.40;47.80
9177;DHT22;4623;54.310;10.112;2022-08-01T12:12:35;29.10;49.00
9177;DHT22;4623;54.310;10.112;2022-08-01T12:15:05;28.70;48.30
9177;DHT22;4623;54.310;10.112;2022-08-01T12:17:43;28.40;48.90
9177;DHT22;4623;54.310;10.112;2022-08-01T12:20:29;28.10;48.20
9177;DHT22;4623;54.310;10.112;2022-08-01T12:22:57;27.20;48.20
9177;DHT22;4623;54.310;10.112;2022-08-01T12:25:23;27.20;50.50
9177;DHT22;4623;54.310;10.112;2022-08-01T12:27:49;26.70;48.30
9177;DHT22;4623;54.310;10.112;2022-08-01T12:30:20;26.80;48.60
9177;DHT22;4623;54.310;10.112;2022-08-01T12:32:50;26.70;46.40
9177;DHT22;4623;54.310;10.112;2022-08-01T12:35:18;26.80;46.20
9177;DHT22;4623;54.310;10.112;2022-08-01T12:37:49;26.80;47.30
9177;DHT22;4623;54.310;10.112;2022-08-01T12:40:26;27.00;47.60
9177;DHT22;4623;54.310;10.112;2022-08-01T12:43:04;27.20;48.10
9177;DHT22;4623;54.310;10.112;2022-08-01T12:45:39;27.50;49.70
9177;DHT22;4623;54.310;10.112;2022-08-01T12:48:09;27.90;46.60
9177;DHT22;4623;54.310;10.112;2022-08-01T12:50:37;27.80;47.20
9177;DHT22;4623;54.310;10.112;2022-08-01T12:53:04;28.00;47.40
9177;DHT22;4623;54.310;10.112;2022-08-01T12:55:29;28.00;45.90
9177;DHT22;4623;54.310;10.112;2022-08-01T12:58:05;27.80;45.70
9177;DHT22;4623;54.310;10.112;2022-08-01T13:00:31;27.80;44.90
9177;DHT22;4623;54.310;10.112;2022-08-01T13:03:06;28.20;46.30
9177;DHT22;4623;54.310;10.112;2022-08-01T13:05:49;28.50;44.50
9177;DHT22;4623;54.310;10.112;2022-08-01T13:08:21;28.50;43.40
9177;DHT22;4623;54.310;10.112;2022-08-01T13:10:47;28.60;44.50
9177;DHT22;4623;54.310;10.112;2022-08-01T13:13:14;28.60;43.10
9177;DHT22;4623;54.310;10.112;2022-08-01T13:15:41;28.90;43.90
9177;DHT22;4623;54.310;10.112;2022-08-01T13:18:28;28.90;43.70
9177;DHT22;4623;54.310;10.112;2022-08-01T13:21:21;29.60;43.20
9177;DHT22;4623;54.310;10.112;2022-08-01T13:24:10;29.40;43.30
9177;DHT22;4623;54.310;10.112;2022-08-01T13:29:05;29.20;42.60
9177;DHT22;4623;54.310;10.112;2022-08-01T13:31:36;29.40;42.90
9177;DHT22;4623;54.310;10.112;2022-08-01T13:34:01;29.50;42.50
9177;DHT22;4623;54.310;10.112;2022-08-01T13:36:27;29.10;42.70
9177;DHT22;4623;54.310;10.112;2022-08-01T13:38:54;28.80;44.30
9177;DHT22;4623;54.310;10.112;2022-08-01T13:41:39;28.20;44.70
9177;DHT22;4623;54.310;10.112;2022-08-01T13:44:05;27.50;45.70
9177;DHT22;4623;54.310;10.112;2022-08-01T13:46:31;27.30;46.30
9177;DHT22;4623;54.310;10.112;2022-08-01T13:48:57;26.80;45.80
9177;DHT22;4623;54.310;10.112;2022-08-01T13:51:23;26.10;46.70
9177;DHT22;4623;54.310;10.112;2022-08-01T13:53:48;26.00;48.70
9177;DHT22;4623;54.310;10.112;2022-08-01T13:56:14;25.70;49.30
9177;DHT22;4623;54.310;10.112;2022-08-01T13:58:42;25.50;50.00
9177;DHT22;4623;54.310;10.112;2022-08-01T14:01:08;25.30;50.50
9177;DHT22;4623;54.310;10.112;2022-08-01T14:03:33;25.00;52.10
9177;DHT22;4623;54.310;10.112;2022-08-01T14:05:59;24.90;52.90
9177;DHT22;4623;54.310;10.112;2022-08-01T14:08:24;24.70;54.40
9177;DHT22;4623;54.310;10.112;2022-08-01T14:10:50;24.60;55.60
9177;DHT22;4623;54.310;10.112;2022-08-01T14:13:17;24.50;57.10
9177;DHT22;4623;54.310;10.112;2022-08-01T14:15:42;24.30;57.60
9177;DHT22;4623;54.310;10.112;2022-08-01T14:18:08;24.10;59.40
9177;DHT22;4623;54.310;10.112;2022-08-01T14:20:34;23.90;59.90
9177;DHT22;4623;54.310;10.112;2022-08-01T14:23:00;23.80;59.10
9177;DHT22;4623;54.310;10.112;2022-08-01T14:25:26;23.90;60.60
9177;DHT22;4623;54.310;10.112;2022-08-01T14:27:52;23.80;62.10
9177;DHT22;4623;54.310;10.112;2022-08-01T14:30:17;23.90;63.00
9177;DHT22;4623;54.310;10.112;2022-08-01T14:32:43;24.00;61.00
9177;DHT22;4623;54.310;10.112;2022-08-01T14:35:09;23.80;62.60
9177;DHT22;4623;54.310;10.112;2022-08-01T14:37:34;23.70;62.40
9177;DHT22;4623;54.310;10.112;2022-08-01T14:40:00;23.50;61.30
9177;DHT22;4623;54.310;10.112;2022-08-01T14:42:30;23.30;61.50
9177;DHT22;4623;54.310;10.112;2022-08-01T14:44:56;23.30;62.10
9177;DHT22;4623;54.310;10.112;2022-08-01T14:47:22;23.40;61.70
9177;DHT22;4623;54.310;10.112;2022-08-01T14:49:48;23.40;61.70
9177;DHT22;4623;54.310;10.112;2022-08-01T14:52:14;23.40;64.10
9177;DHT22;4623;54.310;10.112;2022-08-01T14:54:39;23.30;64.00
9177;DHT22;4623;54.310;10.112;2022-08-01T14:57:05;23.20;64.40
9177;DHT22;4623;54.310;10.112;2022-08-01T14:59:31;23.20;66.30
9177;DHT22;4623;54.310;10.112;2022-08-01T15:01:57;23.20;65.60
9177;DHT22;4623;54.310;10.112;2022-08-01T15:04:22;23.10;67.00
9177;DHT22;4623;54.310;10.112;2022-08-01T15:06:48;23.10;67.30
9177;DHT22;4623;54.310;10.112;2022-08-01T15:09:13;23.20;69.60
9177;DHT22;4623;54.310;10.112;2022-08-01T15:11:39;23.20;68.30
9177;DHT22;4623;54.310;10.112;2022-08-01T15:14:04;23.10;69.10
9177;DHT22;4623;54.310;10.112;2022-08-01T15:16:49;23.10;68.40
9177;DHT22;4623;54.310;10.112;2022-08-01T15:19:14;23.10;69.60
9177;DHT22;4623;54.310;10.112;2022-08-01T15:21:40;23.10;70.10
9177;DHT22;4623;54.310;10.112;2022-08-01T15:24:06;23.10;71.40
9177;DHT22;4623;54.310;10.112;2022-08-01T15:26:32;23.10;70.80
9177;DHT22;4623;54.310;10.112;2022-08-01T15:28:57;23.00;70.10
9177;DHT22;4623;54.310;10.112;2022-08-01T15:31:23;22.90;70.30
9177;DHT22;4623;54.310;10.112;2022-08-01T15:33:49;22.90;70.60
9177;DHT22;4623;54.310;10.112;2022-08-01T15:36:14;22.90;70.40
9177;DHT22;4623;54.310;10.112;2022-08-01T15:38:40;22.90;71.70
9177;DHT22;4623;54.310;10.112;2022-08-01T15:41:06;22.70;71.40
9177;DHT22;4623;54.310;10.112;2022-08-01T15:43:31;22.70;72.60
9177;DHT22;4623;54.310;10.112;2022-08-01T15:45:57;22.60;72.20
9177;DHT22;4623;54.310;10.112;2022-08-01T15:48:23;22.60;73.10
9177;DHT22;4623;54.310;10.112;2022-08-01T15:50:48;22.50;73.40
9177;DHT22;4623;54.310;10.112;2022-08-01T15:53:14;22.50;73.80
9177;DHT22;4623;54.310;10.112;2022-08-01T15:55:40;22.40;74.40
9177;DHT22;4623;54.310;10.112;2022-08-01T15:58:05;22.40;74.60
9177;DHT22;4623;54.310;10.112;2022-08-01T16:00:31;22.50;75.90
9177;DHT22;4623;54.310;10.112;2022-08-01T16:02:57;22.50;75.50
9177;DHT22;4623;54.310;10.112;2022-08-01T16:05:23;22.60;75.40
9177;DHT22;4623;54.310;10.112;2022-08-01T16:07:49;22.60;77.00
9177;DHT22;4623;54.310;10.112;2022-08-01T16:10:14;22.40;76.30
9177;DHT22;4623;54.310;10.112;2022-08-01T16:12:40;22.40;76.10
9177;DHT22;4623;54.310;10.112;2022-08-01T16:15:06;22.30;77.00
9177;DHT22;4623;54.310;10.112;2022-08-01T16:17:32;22.20;76.90
9177;DHT22;4623;54.310;10.112;2022-08-01T16:19:58;22.10;76.50
9177;DHT22;4623;54.310;10.112;2022-08-01T16:22:24;22.20;77.20
9177;DHT22;4623;54.310;10.112;2022-08-01T16:24:50;22.20;78.60
9177;DHT22;4623;54.310;10.112;2022-08-01T16:27:15;22.10;78.50
9177;DHT22;4623;54.310;10.112;2022-08-01T16:29:41;22.20;80.00
9177;DHT22;4623;54.310;10.112;2022-08-01T16:32:07;22.20;81.10
9177;DHT22;4623;54.310;10.112;2022-08-01T16:34:32;22.10;78.80
9177;DHT22;4623;54.310;10.112;2022-08-01T16:36:58;21.90;78.90
9177;DHT22;4623;54.310;10.112;2022-08-01T16:39:24;21.90;79.70
9177;DHT22;4623;54.310;10.112;2022-08-01T16:41:50;21.80;79.90